Terminal Aerodrome Forecast
Issued by NWS

Home | Current Version | Previous Version | Text Only | Print | Product List | Glossary On
Versions: 1 2 3 4 5 6 7 8 9 10 11 12 13
000
FTUS45 KTFX 160500
TAFBZN
TAF
KBZN 160520Z 1606/1706 15006KT P6SM SKC
     FM161800 VRB06KT P6SM BKN150
     FM170000 16007KT P6SM VCSH BKN100=

USA.gov is the U.S. government's official web portal to all federal, state and local government web resources and services.